sensor_id;sensor_type;location;lat;lon;timestamp;P1;durP1;ratioP1;P2;durP2;ratioP2
70320;SDS011;61127;55.826;37.046;2022-10-24T00:01:33;16.47;;;6.93;;
70320;SDS011;61127;55.826;37.046;2022-10-24T00:04:00;15.77;;;7.25;;
70320;SDS011;61127;55.826;37.046;2022-10-24T00:06:26;15.32;;;7.05;;
70320;SDS011;61127;55.826;37.046;2022-10-24T00:08:52;16.70;;;7.13;;
70320;SDS011;61127;55.826;37.046;2022-10-24T00:11:19;15.38;;;6.50;;
70320;SDS011;61127;55.826;37.046;2022-10-24T00:13:46;15.90;;;7.07;;
70320;SDS011;61127;55.826;37.046;2022-10-24T00:16:12;17.35;;;6.82;;
70320;SDS011;61127;55.826;37.046;2022-10-24T00:18:37;18.88;;;8.27;;
70320;SDS011;61127;55.826;37.046;2022-10-24T00:21:03;15.07;;;7.18;;
70320;SDS011;61127;55.826;37.046;2022-10-24T00:23:29;15.82;;;7.85;;
70320;SDS011;61127;55.826;37.046;2022-10-24T00:25:56;15.65;;;7.15;;
70320;SDS011;61127;55.826;37.046;2022-10-24T00:28:26;14.95;;;7.13;;
70320;SDS011;61127;55.826;37.046;2022-10-24T00:30:52;16.42;;;8.13;;
70320;SDS011;61127;55.826;37.046;2022-10-24T00:33:18;16.67;;;8.23;;
70320;SDS011;61127;55.826;37.046;2022-10-24T00:35:45;16.98;;;7.88;;
70320;SDS011;61127;55.826;37.046;2022-10-24T00:38:11;21.33;;;8.43;;
70320;SDS011;61127;55.826;37.046;2022-10-24T00:40:36;16.33;;;8.02;;
70320;SDS011;61127;55.826;37.046;2022-10-24T00:43:02;17.20;;;8.70;;
70320;SDS011;61127;55.826;37.046;2022-10-24T00:48:34;21.77;;;8.73;;
70320;SDS011;61127;55.826;37.046;2022-10-24T00:51:07;17.45;;;8.88;;
70320;SDS011;61127;55.826;37.046;2022-10-24T00:53:34;17.63;;;9.02;;
70320;SDS011;61127;55.826;37.046;2022-10-24T00:56:05;19.35;;;9.73;;
70320;SDS011;61127;55.826;37.046;2022-10-24T00:58:32;20.58;;;9.60;;
70320;SDS011;61127;55.826;37.046;2022-10-24T01:00:58;18.52;;;9.60;;
70320;SDS011;61127;55.826;37.046;2022-10-24T01:03:24;19.27;;;9.80;;
70320;SDS011;61127;55.826;37.046;2022-10-24T01:16:18;23.43;;;9.70;;
70320;SDS011;61127;55.826;37.046;2022-10-24T01:21:27;22.52;;;10.02;;
70320;SDS011;61127;55.826;37.046;2022-10-24T01:26:43;24.20;;;10.50;;
70320;SDS011;61127;55.826;37.046;2022-10-24T01:31:47;20.30;;;9.63;;
70320;SDS011;61127;55.826;37.046;2022-10-24T01:34:19;20.50;;;9.90;;
70320;SDS011;61127;55.826;37.046;2022-10-24T01:39:22;18.40;;;9.10;;
70320;SDS011;61127;55.826;37.046;2022-10-24T01:41:50;19.90;;;9.77;;
70320;SDS011;61127;55.826;37.046;2022-10-24T01:44:21;21.65;;;10.50;;
70320;SDS011;61127;55.826;37.046;2022-10-24T01:46:54;21.15;;;9.85;;
70320;SDS011;61127;55.826;37.046;2022-10-24T01:49:22;22.48;;;9.82;;
70320;SDS011;61127;55.826;37.046;2022-10-24T01:51:50;22.58;;;10.30;;
70320;SDS011;61127;55.826;37.046;2022-10-24T01:54:18;25.58;;;10.35;;
70320;SDS011;61127;55.826;37.046;2022-10-24T01:56:44;22.83;;;9.57;;
70320;SDS011;61127;55.826;37.046;2022-10-24T02:04:20;19.80;;;9.27;;
70320;SDS011;61127;55.826;37.046;2022-10-24T02:06:47;23.52;;;10.20;;
70320;SDS011;61127;55.826;37.046;2022-10-24T02:09:14;17.70;;;8.52;;
70320;SDS011;61127;55.826;37.046;2022-10-24T02:11:41;18.48;;;9.25;;
70320;SDS011;61127;55.826;37.046;2022-10-24T02:14:16;19.50;;;9.20;;
70320;SDS011;61127;55.826;37.046;2022-10-24T02:16:43;18.80;;;8.32;;
70320;SDS011;61127;55.826;37.046;2022-10-24T02:19:09;21.75;;;9.35;;
70320;SDS011;61127;55.826;37.046;2022-10-24T02:24:25;17.45;;;8.45;;
70320;SDS011;61127;55.826;37.046;2022-10-24T02:26:53;18.05;;;8.55;;
70320;SDS011;61127;55.826;37.046;2022-10-24T02:29:28;14.52;;;7.57;;
70320;SDS011;61127;55.826;37.046;2022-10-24T02:31:55;19.38;;;8.68;;
70320;SDS011;61127;55.826;37.046;2022-10-24T02:36:52;16.15;;;7.70;;
70320;SDS011;61127;55.826;37.046;2022-10-24T02:39:19;20.08;;;8.35;;
70320;SDS011;61127;55.826;37.046;2022-10-24T02:41:45;15.95;;;8.32;;
70320;SDS011;61127;55.826;37.046;2022-10-24T02:44:14;16.90;;;7.80;;
70320;SDS011;61127;55.826;37.046;2022-10-24T02:46:41;16.08;;;7.55;;
70320;SDS011;61127;55.826;37.046;2022-10-24T02:49:07;14.15;;;7.78;;
70320;SDS011;61127;55.826;37.046;2022-10-24T02:51:34;15.90;;;7.67;;
70320;SDS011;61127;55.826;37.046;2022-10-24T02:54:02;18.35;;;8.07;;
70320;SDS011;61127;55.826;37.046;2022-10-24T02:56:29;15.23;;;7.55;;
70320;SDS011;61127;55.826;37.046;2022-10-24T02:58:55;16.45;;;7.10;;
70320;SDS011;61127;55.826;37.046;2022-10-24T03:01:20;13.77;;;7.40;;
70320;SDS011;61127;55.826;37.046;2022-10-24T03:03:46;13.35;;;7.20;;
70320;SDS011;61127;55.826;37.046;2022-10-24T03:06:12;14.27;;;6.93;;
70320;SDS011;61127;55.826;37.046;2022-10-24T03:08:37;13.48;;;6.65;;
70320;SDS011;61127;55.826;37.046;2022-10-24T03:11:03;11.90;;;6.27;;
70320;SDS011;61127;55.826;37.046;2022-10-24T03:13:29;13.00;;;6.38;;
70320;SDS011;61127;55.826;37.046;2022-10-24T03:15:56;13.83;;;6.57;;
70320;SDS011;61127;55.826;37.046;2022-10-24T03:18:21;16.00;;;6.75;;
70320;SDS011;61127;55.826;37.046;2022-10-24T03:20:47;14.20;;;6.05;;
70320;SDS011;61127;55.826;37.046;2022-10-24T03:23:13;12.97;;;6.53;;
70320;SDS011;61127;55.826;37.046;2022-10-24T03:25:40;12.82;;;6.38;;
70320;SDS011;61127;55.826;37.046;2022-10-24T03:28:05;12.02;;;6.25;;
70320;SDS011;61127;55.826;37.046;2022-10-24T03:30:31;11.93;;;5.83;;
70320;SDS011;61127;55.826;37.046;2022-10-24T03:32:57;11.80;;;5.80;;
70320;SDS011;61127;55.826;37.046;2022-10-24T03:35:22;13.07;;;6.50;;
70320;SDS011;61127;55.826;37.046;2022-10-24T03:37:48;13.02;;;6.50;;
70320;SDS011;61127;55.826;37.046;2022-10-24T03:40:14;12.23;;;5.83;;
70320;SDS011;61127;55.826;37.046;2022-10-24T03:42:39;13.75;;;6.32;;
70320;SDS011;61127;55.826;37.046;2022-10-24T03:45:05;10.75;;;5.60;;
70320;SDS011;61127;55.826;37.046;2022-10-24T03:47:31;12.13;;;5.90;;
70320;SDS011;61127;55.826;37.046;2022-10-24T03:49:57;11.37;;;5.67;;
70320;SDS011;61127;55.826;37.046;2022-10-24T03:52:22;12.23;;;6.07;;
70320;SDS011;61127;55.826;37.046;2022-10-24T03:54:49;12.90;;;6.23;;
70320;SDS011;61127;55.826;37.046;2022-10-24T03:57:15;12.02;;;5.47;;
70320;SDS011;61127;55.826;37.046;2022-10-24T03:59:44;10.48;;;5.47;;
70320;SDS011;61127;55.826;37.046;2022-10-24T04:02:10;10.63;;;5.20;;
70320;SDS011;61127;55.826;37.046;2022-10-24T04:04:39;9.40;;;4.97;;
70320;SDS011;61127;55.826;37.046;2022-10-24T04:07:04;10.30;;;5.47;;
70320;SDS011;61127;55.826;37.046;2022-10-24T04:09:30;10.48;;;4.90;;
70320;SDS011;61127;55.826;37.046;2022-10-24T04:11:56;10.13;;;4.70;;
70320;SDS011;61127;55.826;37.046;2022-10-24T04:14:24;12.03;;;5.13;;
70320;SDS011;61127;55.826;37.046;2022-10-24T04:16:50;10.35;;;5.40;;
70320;SDS011;61127;55.826;37.046;2022-10-24T04:19:15;9.80;;;4.67;;
70320;SDS011;61127;55.826;37.046;2022-10-24T04:21:43;10.95;;;4.88;;
70320;SDS011;61127;55.826;37.046;2022-10-24T04:24:09;9.93;;;4.97;;
70320;SDS011;61127;55.826;37.046;2022-10-24T04:26:34;9.10;;;4.85;;
70320;SDS011;61127;55.826;37.046;2022-10-24T04:29:00;10.50;;;4.90;;
70320;SDS011;61127;55.826;37.046;2022-10-24T04:31:25;11.33;;;5.00;;
70320;SDS011;61127;55.826;37.046;2022-10-24T04:36:20;8.73;;;4.72;;
70320;SDS011;61127;55.826;37.046;2022-10-24T04:38:45;9.88;;;5.00;;
70320;SDS011;61127;55.826;37.046;2022-10-24T04:41:11;9.80;;;4.13;;
70320;SDS011;61127;55.826;37.046;2022-10-24T04:43:37;10.77;;;4.75;;
70320;SDS011;61127;55.826;37.046;2022-10-24T04:46:04;8.50;;;4.30;;
70320;SDS011;61127;55.826;37.046;2022-10-24T04:48:29;8.27;;;4.43;;
70320;SDS011;61127;55.826;37.046;2022-10-24T04:50:55;10.10;;;4.77;;
70320;SDS011;61127;55.826;37.046;2022-10-24T04:53:21;9.05;;;4.60;;
70320;SDS011;61127;55.826;37.046;2022-10-24T04:55:47;10.03;;;4.30;;
70320;SDS011;61127;55.826;37.046;2022-10-24T04:58:13;9.88;;;5.20;;
70320;SDS011;61127;55.826;37.046;2022-10-24T05:00:39;9.10;;;4.72;;
70320;SDS011;61127;55.826;37.046;2022-10-24T05:03:07;10.23;;;5.05;;
70320;SDS011;61127;55.826;37.046;2022-10-24T05:05:34;10.50;;;4.43;;
70320;SDS011;61127;55.826;37.046;2022-10-24T05:07:59;8.20;;;4.40;;
70320;SDS011;61127;55.826;37.046;2022-10-24T05:10:25;10.43;;;4.88;;
70320;SDS011;61127;55.826;37.046;2022-10-24T05:12:50;8.90;;;4.50;;
70320;SDS011;61127;55.826;37.046;2022-10-24T05:15:17;9.77;;;4.88;;
70320;SDS011;61127;55.826;37.046;2022-10-24T05:17:43;8.40;;;4.70;;
70320;SDS011;61127;55.826;37.046;2022-10-24T05:20:09;9.75;;;5.03;;
70320;SDS011;61127;55.826;37.046;2022-10-24T05:22:35;11.57;;;5.13;;
70320;SDS011;61127;55.826;37.046;2022-10-24T05:25:02;11.03;;;5.63;;
70320;SDS011;61127;55.826;37.046;2022-10-24T05:27:28;9.68;;;4.90;;
70320;SDS011;61127;55.826;37.046;2022-10-24T05:29:54;9.00;;;4.67;;
70320;SDS011;61127;55.826;37.046;2022-10-24T05:32:20;8.65;;;4.50;;
70320;SDS011;61127;55.826;37.046;2022-10-24T05:34:45;8.93;;;4.73;;
70320;SDS011;61127;55.826;37.046;2022-10-24T05:37:11;8.80;;;4.88;;
70320;SDS011;61127;55.826;37.046;2022-10-24T05:39:37;11.32;;;5.10;;
70320;SDS011;61127;55.826;37.046;2022-10-24T05:42:03;9.55;;;4.88;;
70320;SDS011;61127;55.826;37.046;2022-10-24T05:44:30;9.20;;;4.93;;
70320;SDS011;61127;55.826;37.046;2022-10-24T05:46:55;8.82;;;4.70;;
70320;SDS011;61127;55.826;37.046;2022-10-24T05:49:21;9.10;;;4.87;;
70320;SDS011;61127;55.826;37.046;2022-10-24T05:51:47;10.50;;;5.00;;
70320;SDS011;61127;55.826;37.046;2022-10-24T05:54:14;10.90;;;5.17;;
70320;SDS011;61127;55.826;37.046;2022-10-24T05:56:39;9.73;;;4.88;;
70320;SDS011;61127;55.826;37.046;2022-10-24T05:59:05;7.55;;;4.25;;
70320;SDS011;61127;55.826;37.046;2022-10-24T06:01:31;10.33;;;4.60;;
70320;SDS011;61127;55.826;37.046;2022-10-24T06:03:58;9.07;;;4.53;;
70320;SDS011;61127;55.826;37.046;2022-10-24T06:06:24;8.40;;;4.35;;
70320;SDS011;61127;55.826;37.046;2022-10-24T06:08:49;7.82;;;4.40;;
70320;SDS011;61127;55.826;37.046;2022-10-24T06:11:15;8.88;;;4.45;;
70320;SDS011;61127;55.826;37.046;2022-10-24T06:13:41;9.53;;;4.73;;
70320;SDS011;61127;55.826;37.046;2022-10-24T06:16:08;9.02;;;4.10;;
70320;SDS011;61127;55.826;37.046;2022-10-24T06:18:34;7.40;;;4.40;;
70320;SDS011;61127;55.826;37.046;2022-10-24T06:21:00;9.60;;;4.17;;
70320;SDS011;61127;55.826;37.046;2022-10-24T06:23:27;9.50;;;4.00;;
70320;SDS011;61127;55.826;37.046;2022-10-24T06:28:21;9.53;;;4.10;;
70320;SDS011;61127;55.826;37.046;2022-10-24T06:30:48;6.65;;;3.90;;
70320;SDS011;61127;55.826;37.046;2022-10-24T06:33:14;9.02;;;3.63;;
70320;SDS011;61127;55.826;37.046;2022-10-24T06:35:42;7.47;;;3.80;;
70320;SDS011;61127;55.826;37.046;2022-10-24T06:38:08;7.47;;;3.90;;
70320;SDS011;61127;55.826;37.046;2022-10-24T06:40:35;7.28;;;3.83;;
70320;SDS011;61127;55.826;37.046;2022-10-24T06:43:03;7.47;;;3.75;;
70320;SDS011;61127;55.826;37.046;2022-10-24T06:45:31;6.25;;;3.55;;
70320;SDS011;61127;55.826;37.046;2022-10-24T06:47:56;8.57;;;3.80;;
70320;SDS011;61127;55.826;37.046;2022-10-24T06:50:25;8.15;;;3.85;;
70320;SDS011;61127;55.826;37.046;2022-10-24T06:52:51;7.22;;;3.90;;
70320;SDS011;61127;55.826;37.046;2022-10-24T06:55:17;8.13;;;3.90;;
70320;SDS011;61127;55.826;37.046;2022-10-24T06:57:43;8.02;;;3.83;;
70320;SDS011;61127;55.826;37.046;2022-10-24T07:00:09;7.18;;;3.60;;
70320;SDS011;61127;55.826;37.046;2022-10-24T07:02:35;6.37;;;3.43;;
70320;SDS011;61127;55.826;37.046;2022-10-24T07:05:02;6.40;;;3.28;;
70320;SDS011;61127;55.826;37.046;2022-10-24T07:07:28;8.50;;;3.47;;
70320;SDS011;61127;55.826;37.046;2022-10-24T07:09:54;6.77;;;2.97;;
70320;SDS011;61127;55.826;37.046;2022-10-24T07:12:21;7.32;;;3.75;;
70320;SDS011;61127;55.826;37.046;2022-10-24T07:14:48;9.57;;;3.33;;
70320;SDS011;61127;55.826;37.046;2022-10-24T07:17:14;7.22;;;3.50;;
70320;SDS011;61127;55.826;37.046;2022-10-24T07:19:40;8.55;;;4.20;;
70320;SDS011;61127;55.826;37.046;2022-10-24T07:22:06;7.13;;;3.72;;
70320;SDS011;61127;55.826;37.046;2022-10-24T07:24:32;6.83;;;4.03;;
70320;SDS011;61127;55.826;37.046;2022-10-24T07:26:58;7.15;;;3.75;;
70320;SDS011;61127;55.826;37.046;2022-10-24T07:29:24;6.63;;;3.60;;
70320;SDS011;61127;55.826;37.046;2022-10-24T07:31:49;6.73;;;3.90;;
70320;SDS011;61127;55.826;37.046;2022-10-24T07:34:15;8.30;;;3.70;;
70320;SDS011;61127;55.826;37.046;2022-10-24T07:36:41;8.23;;;4.00;;
70320;SDS011;61127;55.826;37.046;2022-10-24T07:39:06;7.40;;;3.83;;
70320;SDS011;61127;55.826;37.046;2022-10-24T07:41:36;7.63;;;3.80;;
70320;SDS011;61127;55.826;37.046;2022-10-24T07:46:37;6.57;;;3.70;;
70320;SDS011;61127;55.826;37.046;2022-10-24T07:49:09;8.02;;;3.70;;
70320;SDS011;61127;55.826;37.046;2022-10-24T07:51:35;5.95;;;3.50;;
70320;SDS011;61127;55.826;37.046;2022-10-24T07:54:02;8.03;;;3.87;;
70320;SDS011;61127;55.826;37.046;2022-10-24T07:56:32;6.38;;;3.40;;
70320;SDS011;61127;55.826;37.046;2022-10-24T07:58:58;5.78;;;3.35;;
70320;SDS011;61127;55.826;37.046;2022-10-24T08:01:27;5.63;;;3.33;;
70320;SDS011;61127;55.826;37.046;2022-10-24T08:03:53;6.10;;;3.47;;
70320;SDS011;61127;55.826;37.046;2022-10-24T08:06:20;7.22;;;3.97;;
70320;SDS011;61127;55.826;37.046;2022-10-24T08:08:46;7.22;;;3.15;;
70320;SDS011;61127;55.826;37.046;2022-10-24T08:11:16;5.95;;;3.00;;
70320;SDS011;61127;55.826;37.046;2022-10-24T08:13:44;6.55;;;2.95;;
70320;SDS011;61127;55.826;37.046;2022-10-24T08:16:11;3.85;;;2.75;;
70320;SDS011;61127;55.826;37.046;2022-10-24T08:18:38;9.32;;;2.38;;
70320;SDS011;61127;55.826;37.046;2022-10-24T08:21:05;4.80;;;2.35;;
70320;SDS011;61127;55.826;37.046;2022-10-24T08:23:31;3.08;;;2.15;;
70320;SDS011;61127;55.826;37.046;2022-10-24T08:25:58;6.07;;;2.50;;
70320;SDS011;61127;55.826;37.046;2022-10-24T08:28:24;4.45;;;2.35;;
70320;SDS011;61127;55.826;37.046;2022-10-24T08:30:53;3.88;;;2.03;;
70320;SDS011;61127;55.826;37.046;2022-10-24T08:33:19;3.67;;;2.00;;
70320;SDS011;61127;55.826;37.046;2022-10-24T08:35:45;3.87;;;1.80;;
70320;SDS011;61127;55.826;37.046;2022-10-24T08:38:11;3.90;;;2.20;;
70320;SDS011;61127;55.826;37.046;2022-10-24T08:40:36;4.75;;;2.03;;
70320;SDS011;61127;55.826;37.046;2022-10-24T08:43:02;6.15;;;2.03;;
70320;SDS011;61127;55.826;37.046;2022-10-24T08:45:34;2.90;;;1.47;;
70320;SDS011;61127;55.826;37.046;2022-10-24T08:48:07;3.33;;;2.00;;
70320;SDS011;61127;55.826;37.046;2022-10-24T08:50:33;4.75;;;1.90;;
70320;SDS011;61127;55.826;37.046;2022-10-24T08:53:03;3.23;;;1.63;;
70320;SDS011;61127;55.826;37.046;2022-10-24T08:58:20;6.07;;;2.40;;
70320;SDS011;61127;55.826;37.046;2022-10-24T09:00:48;4.88;;;2.10;;
70320;SDS011;61127;55.826;37.046;2022-10-24T09:05:50;4.33;;;1.80;;
70320;SDS011;61127;55.826;37.046;2022-10-24T09:10:48;3.40;;;1.90;;
70320;SDS011;61127;55.826;37.046;2022-10-24T09:13:15;4.20;;;1.90;;
70320;SDS011;61127;55.826;37.046;2022-10-24T09:18:17;5.07;;;1.90;;
70320;SDS011;61127;55.826;37.046;2022-10-24T09:20:44;4.80;;;1.95;;
70320;SDS011;61127;55.826;37.046;2022-10-24T09:23:09;3.47;;;1.73;;
70320;SDS011;61127;55.826;37.046;2022-10-24T09:25:43;4.57;;;1.88;;
70320;SDS011;61127;55.826;37.046;2022-10-24T09:28:11;3.95;;;1.65;;
70320;SDS011;61127;55.826;37.046;2022-10-24T09:30:37;2.92;;;1.58;;
70320;SDS011;61127;55.826;37.046;2022-10-24T09:35:50;3.83;;;1.60;;
70320;SDS011;61127;55.826;37.046;2022-10-24T09:40:50;3.50;;;1.63;;
70320;SDS011;61127;55.826;37.046;2022-10-24T09:43:20;2.95;;;1.50;;
70320;SDS011;61127;55.826;37.046;2022-10-24T09:45:49;3.58;;;1.75;;
70320;SDS011;61127;55.826;37.046;2022-10-24T09:48:21;2.08;;;1.40;;
70320;SDS011;61127;55.826;37.046;2022-10-24T09:50:47;2.47;;;1.42;;
70320;SDS011;61127;55.826;37.046;2022-10-24T09:53:27;2.17;;;1.30;;
70320;SDS011;61127;55.826;37.046;2022-10-24T09:56:16;1.98;;;1.20;;
70320;SDS011;61127;55.826;37.046;2022-10-24T09:58:41;2.17;;;1.20;;
70320;SDS011;61127;55.826;37.046;2022-10-24T10:03:33;2.33;;;1.33;;
70320;SDS011;61127;55.826;37.046;2022-10-24T10:06:02;3.80;;;1.33;;
70320;SDS011;61127;55.826;37.046;2022-10-24T10:08:32;2.72;;;1.50;;
70320;SDS011;61127;55.826;37.046;2022-10-24T10:11:09;3.85;;;1.15;;
70320;SDS011;61127;55.826;37.046;2022-10-24T10:13:42;2.35;;;1.35;;
70320;SDS011;61127;55.826;37.046;2022-10-24T10:16:19;2.07;;;1.30;;
70320;SDS011;61127;55.826;37.046;2022-10-24T10:18:45;3.75;;;1.30;;
70320;SDS011;61127;55.826;37.046;2022-10-24T10:21:20;3.00;;;1.20;;
70320;SDS011;61127;55.826;37.046;2022-10-24T10:23:50;2.75;;;1.25;;
70320;SDS011;61127;55.826;37.046;2022-10-24T10:26:20;2.63;;;1.30;;
70320;SDS011;61127;55.826;37.046;2022-10-24T10:28:50;1.80;;;1.10;;
70320;SDS011;61127;55.826;37.046;2022-10-24T10:31:16;4.82;;;2.03;;
70320;SDS011;61127;55.826;37.046;2022-10-24T10:36:30;2.90;;;1.08;;
70320;SDS011;61127;55.826;37.046;2022-10-24T10:46:46;2.28;;;1.20;;
70320;SDS011;61127;55.826;37.046;2022-10-24T10:49:29;2.25;;;1.20;;
70320;SDS011;61127;55.826;37.046;2022-10-24T10:51:57;3.08;;;1.23;;
70320;SDS011;61127;55.826;37.046;2022-10-24T10:57:10;2.88;;;1.10;;
70320;SDS011;61127;55.826;37.046;2022-10-24T11:07:57;2.43;;;1.30;;
70320;SDS011;61127;55.826;37.046;2022-10-24T11:10:27;5.03;;;1.15;;
70320;SDS011;61127;55.826;37.046;2022-10-24T11:12:54;3.30;;;1.10;;
70320;SDS011;61127;55.826;37.046;2022-10-24T11:20:36;1.40;;;0.98;;
70320;SDS011;61127;55.826;37.046;2022-10-24T11:28:17;4.37;;;1.20;;
70320;SDS011;61127;55.826;37.046;2022-10-24T11:31:03;2.83;;;0.90;;
70320;SDS011;61127;55.826;37.046;2022-10-24T11:33:34;1.65;;;1.00;;
70320;SDS011;61127;55.826;37.046;2022-10-24T11:38:30;2.30;;;1.10;;
70320;SDS011;61127;55.826;37.046;2022-10-24T11:41:00;2.47;;;0.97;;
70320;SDS011;61127;55.826;37.046;2022-10-24T11:43:29;2.15;;;1.10;;
70320;SDS011;61127;55.826;37.046;2022-10-24T11:46:00;1.67;;;0.80;;
70320;SDS011;61127;55.826;37.046;2022-10-24T11:53:53;3.42;;;1.08;;
70320;SDS011;61127;55.826;37.046;2022-10-24T11:56:23;2.58;;;0.90;;
70320;SDS011;61127;55.826;37.046;2022-10-24T12:09:21;2.53;;;1.00;;
70320;SDS011;61127;55.826;37.046;2022-10-24T12:17:18;2.55;;;1.33;;
70320;SDS011;61127;55.826;37.046;2022-10-24T12:19:47;4.18;;;1.73;;
70320;SDS011;61127;55.826;37.046;2022-10-24T12:22:18;3.10;;;1.48;;
70320;SDS011;61127;55.826;37.046;2022-10-24T12:24:47;1.95;;;1.20;;
70320;SDS011;61127;55.826;37.046;2022-10-24T12:32:38;1.52;;;0.90;;
70320;SDS011;61127;55.826;37.046;2022-10-24T12:37:50;2.35;;;0.90;;
70320;SDS011;61127;55.826;37.046;2022-10-24T12:45:29;2.92;;;0.88;;
70320;SDS011;61127;55.826;37.046;2022-10-24T12:55:27;6.63;;;2.85;;
70320;SDS011;61127;55.826;37.046;2022-10-24T12:57:53;1.83;;;0.82;;
70320;SDS011;61127;55.826;37.046;2022-10-24T13:03:14;2.03;;;0.90;;
70320;SDS011;61127;55.826;37.046;2022-10-24T13:05:56;1.98;;;0.80;;
70320;SDS011;61127;55.826;37.046;2022-10-24T13:19:30;3.63;;;1.50;;
70320;SDS011;61127;55.826;37.046;2022-10-24T13:21:51;3.97;;;1.10;;
70320;SDS011;61127;55.826;37.046;2022-10-24T13:24:23;4.45;;;1.20;;
70320;SDS011;61127;55.826;37.046;2022-10-24T13:31:49;5.13;;;1.70;;
70320;SDS011;61127;55.826;37.046;2022-10-24T13:34:30;3.55;;;1.30;;
70320;SDS011;61127;55.826;37.046;2022-10-24T13:37:11;3.25;;;1.35;;
70320;SDS011;61127;55.826;37.046;2022-10-24T13:45:03;6.00;;;1.40;;
70320;SDS011;61127;55.826;37.046;2022-10-24T13:47:32;5.00;;;1.20;;
70320;SDS011;61127;55.826;37.046;2022-10-24T13:55:23;8.13;;;1.70;;
70320;SDS011;61127;55.826;37.046;2022-10-24T13:57:51;4.80;;;1.90;;
70320;SDS011;61127;55.826;37.046;2022-10-24T14:00:20;3.60;;;1.80;;
70320;SDS011;61127;55.826;37.046;2022-10-24T14:02:49;4.95;;;2.13;;
70320;SDS011;61127;55.826;37.046;2022-10-24T14:05:25;4.82;;;1.88;;
70320;SDS011;61127;55.826;37.046;2022-10-24T14:07:55;9.75;;;2.15;;
70320;SDS011;61127;55.826;37.046;2022-10-24T14:10:25;6.97;;;1.60;;
70320;SDS011;61127;55.826;37.046;2022-10-24T14:12:51;6.80;;;1.85;;
70320;SDS011;61127;55.826;37.046;2022-10-24T14:15:26;5.95;;;1.67;;
70320;SDS011;61127;55.826;37.046;2022-10-24T14:17:53;8.68;;;1.80;;
70320;SDS011;61127;55.826;37.046;2022-10-24T14:20:31;5.28;;;1.80;;
70320;SDS011;61127;55.826;37.046;2022-10-24T14:22:57;9.57;;;1.90;;
70320;SDS011;61127;55.826;37.046;2022-10-24T14:25:34;6.88;;;1.67;;
70320;SDS011;61127;55.826;37.046;2022-10-24T14:28:09;4.30;;;1.77;;
70320;SDS011;61127;55.826;37.046;2022-10-24T14:30:36;4.38;;;1.63;;
70320;SDS011;61127;55.826;37.046;2022-10-24T14:33:40;3.55;;;1.50;;
70320;SDS011;61127;55.826;37.046;2022-10-24T14:35:56;3.57;;;1.50;;
70320;SDS011;61127;55.826;37.046;2022-10-24T14:38:25;4.43;;;1.95;;
70320;SDS011;61127;55.826;37.046;2022-10-24T14:40:52;5.53;;;1.40;;
70320;SDS011;61127;55.826;37.046;2022-10-24T14:43:24;5.28;;;1.73;;
70320;SDS011;61127;55.826;37.046;2022-10-24T14:46:00;4.45;;;1.70;;
70320;SDS011;61127;55.826;37.046;2022-10-24T14:48:27;4.70;;;1.83;;
70320;SDS011;61127;55.826;37.046;2022-10-24T14:51:00;3.45;;;1.50;;
70320;SDS011;61127;55.826;37.046;2022-10-24T14:53:26;7.30;;;2.40;;
70320;SDS011;61127;55.826;37.046;2022-10-24T14:55:56;5.88;;;2.40;;
70320;SDS011;61127;55.826;37.046;2022-10-24T14:58:26;5.30;;;2.20;;
70320;SDS011;61127;55.826;37.046;2022-10-24T15:00:54;5.90;;;2.00;;
70320;SDS011;61127;55.826;37.046;2022-10-24T15:03:22;6.00;;;2.50;;
70320;SDS011;61127;55.826;37.046;2022-10-24T15:06:08;7.93;;;2.30;;
70320;SDS011;61127;55.826;37.046;2022-10-24T15:08:36;9.02;;;2.13;;
70320;SDS011;61127;55.826;37.046;2022-10-24T15:11:19;5.75;;;2.10;;
70320;SDS011;61127;55.826;37.046;2022-10-24T15:13:51;10.97;;;2.17;;
70320;SDS011;61127;55.826;37.046;2022-10-24T15:16:27;8.95;;;2.78;;
70320;SDS011;61127;55.826;37.046;2022-10-24T15:18:56;7.10;;;3.50;;
70320;SDS011;61127;55.826;37.046;2022-10-24T15:21:25;13.52;;;5.10;;
70320;SDS011;61127;55.826;37.046;2022-10-24T15:23:54;11.95;;;5.05;;
70320;SDS011;61127;55.826;37.046;2022-10-24T15:26:38;12.50;;;5.40;;
70320;SDS011;61127;55.826;37.046;2022-10-24T15:31:38;11.38;;;4.50;;
70320;SDS011;61127;55.826;37.046;2022-10-24T15:34:07;11.52;;;4.55;;
70320;SDS011;61127;55.826;37.046;2022-10-24T15:36:34;8.48;;;3.90;;
70320;SDS011;61127;55.826;37.046;2022-10-24T15:39:02;12.57;;;4.07;;
70320;SDS011;61127;55.826;37.046;2022-10-24T15:41:29;9.80;;;4.00;;
70320;SDS011;61127;55.826;37.046;2022-10-24T15:43:56;9.75;;;3.83;;
70320;SDS011;61127;55.826;37.046;2022-10-24T15:46:22;7.60;;;3.50;;
70320;SDS011;61127;55.826;37.046;2022-10-24T15:48:47;10.83;;;3.40;;
70320;SDS011;61127;55.826;37.046;2022-10-24T15:51:15;9.05;;;3.65;;
70320;SDS011;61127;55.826;37.046;2022-10-24T15:53:41;8.57;;;3.30;;
70320;SDS011;61127;55.826;37.046;2022-10-24T15:56:07;6.80;;;3.30;;
70320;SDS011;61127;55.826;37.046;2022-10-24T15:58:35;7.23;;;2.90;;
70320;SDS011;61127;55.826;37.046;2022-10-24T16:01:01;7.85;;;3.25;;
70320;SDS011;61127;55.826;37.046;2022-10-24T16:03:27;7.13;;;3.03;;
70320;SDS011;61127;55.826;37.046;2022-10-24T16:05:54;8.35;;;3.33;;
70320;SDS011;61127;55.826;37.046;2022-10-24T16:08:20;11.75;;;4.50;;
70320;SDS011;61127;55.826;37.046;2022-10-24T16:10:47;8.13;;;3.47;;
70320;SDS011;61127;55.826;37.046;2022-10-24T16:13:17;7.57;;;3.40;;
70320;SDS011;61127;55.826;37.046;2022-10-24T16:15:43;9.30;;;3.47;;
70320;SDS011;61127;55.826;37.046;2022-10-24T16:18:10;8.82;;;3.40;;
70320;SDS011;61127;55.826;37.046;2022-10-24T16:20:37;14.55;;;3.60;;
70320;SDS011;61127;55.826;37.046;2022-10-24T16:23:03;10.18;;;3.55;;
70320;SDS011;61127;55.826;37.046;2022-10-24T16:25:33;7.28;;;3.28;;
70320;SDS011;61127;55.826;37.046;2022-10-24T16:27:59;10.20;;;3.30;;
70320;SDS011;61127;55.826;37.046;2022-10-24T16:30:26;10.20;;;3.40;;
70320;SDS011;61127;55.826;37.046;2022-10-24T16:32:52;6.68;;;3.17;;
70320;SDS011;61127;55.826;37.046;2022-10-24T16:35:22;11.02;;;3.28;;
70320;SDS011;61127;55.826;37.046;2022-10-24T16:37:49;6.80;;;2.88;;
70320;SDS011;61127;55.826;37.046;2022-10-24T16:40:16;8.43;;;3.20;;
70320;SDS011;61127;55.826;37.046;2022-10-24T16:42:43;8.73;;;3.13;;
70320;SDS011;61127;55.826;37.046;2022-10-24T16:45:09;8.15;;;3.28;;
70320;SDS011;61127;55.826;37.046;2022-10-24T16:47:35;11.05;;;3.28;;
70320;SDS011;61127;55.826;37.046;2022-10-24T16:50:02;8.48;;;3.50;;
70320;SDS011;61127;55.826;37.046;2022-10-24T16:52:29;7.88;;;3.13;;
70320;SDS011;61127;55.826;37.046;2022-10-24T16:54:56;8.57;;;3.60;;
70320;SDS011;61127;55.826;37.046;2022-10-24T16:57:22;11.38;;;3.58;;
70320;SDS011;61127;55.826;37.046;2022-10-24T16:59:49;8.88;;;3.30;;
70320;SDS011;61127;55.826;37.046;2022-10-24T17:02:15;6.88;;;3.03;;
70320;SDS011;61127;55.826;37.046;2022-10-24T17:04:48;7.70;;;3.00;;
70320;SDS011;61127;55.826;37.046;2022-10-24T17:07:14;7.93;;;3.40;;
70320;SDS011;61127;55.826;37.046;2022-10-24T17:09:40;8.53;;;3.27;;
70320;SDS011;61127;55.826;37.046;2022-10-24T17:12:06;10.65;;;3.00;;
70320;SDS011;61127;55.826;37.046;2022-10-24T17:14:45;7.65;;;3.08;;
70320;SDS011;61127;55.826;37.046;2022-10-24T17:17:11;7.25;;;2.90;;
70320;SDS011;61127;55.826;37.046;2022-10-24T17:19:37;12.53;;;3.17;;
70320;SDS011;61127;55.826;37.046;2022-10-24T17:22:03;9.68;;;2.88;;
70320;SDS011;61127;55.826;37.046;2022-10-24T17:27:12;7.50;;;2.38;;